Time;durP1;ratioP1;P1;durP2;ratioP2;P2;SDS_P1;SDS_P2;PMS_P1;PMS_P2;Temp;Humidity;BMP_temperature;BMP_pressure;BME280_temperature;BME280_humidity;BME280_pressure;Samples;Min_cycle;Max_cycle;Signal;HPM_P1;HPM_P2
2022/07/22 00:00:33;;;;;;;19.63;8.70;;;;;;;;;;5091241;28;20522;-70
2022/07/22 00:03:37;;;;;;;21.95;8.10;;;;;;;;;;5090849;28;20047;-71
2022/07/22 00:06:41;;;;;;;14.00;9.20;;;;;;;;;;5090357;28;20102;-70
2022/07/22 00:09:46;;;;;;;22.90;9.48;;;;;;;;;;5089966;28;20051;-71
2022/07/22 00:12:50;;;;;;;17.08;9.02;;;;;;;;;;5091223;28;20110;-71
2022/07/22 00:15:55;;;;;;;14.25;8.70;;;;;;;;;;5090785;28;20039;-70
2022/07/22 00:18:59;;;;;;;18.70;8.93;;;;;;;;;;5091113;28;20039;-72
2022/07/22 00:22:04;;;;;;;17.45;8.95;;;;;;;;;;5090695;28;20043;-70
2022/07/22 00:25:08;;;;;;;23.52;8.23;;;;;;;;;;5090863;28;20039;-70
2022/07/22 00:28:15;;;;;;;20.58;7.80;;;;;;;;;;5090606;28;20499;-72
2022/07/22 00:31:19;;;;;;;10.80;7.70;;;;;;;;;;5091091;28;20051;-72
2022/07/22 00:34:23;;;;;;;15.02;7.57;;;;;;;;;;5090588;28;20055;-72
2022/07/22 00:37:29;;;;;;;8.68;6.78;;;;;;;;;;5067063;28;20043;-72
2022/07/22 00:40:33;;;;;;;18.25;7.85;;;;;;;;;;5090143;28;20044;-72
2022/07/22 00:43:51;;;;;;;17.00;7.10;;;;;;;;;;5090544;28;20051;-72
2022/07/22 00:46:55;;;;;;;13.13;7.60;;;;;;;;;;5089574;28;20400;-72
2022/07/22 00:49:59;;;;;;;15.60;6.63;;;;;;;;;;5089391;28;20059;-72
2022/07/22 00:53:05;;;;;;;18.48;7.00;;;;;;;;;;5090363;28;20035;-71
2022/07/22 00:56:10;;;;;;;9.55;6.63;;;;;;;;;;5089776;28;20059;-72
2022/07/22 00:59:15;;;;;;;15.90;7.18;;;;;;;;;;5089992;28;20032;-72
2022/07/22 01:02:19;;;;;;;11.98;6.93;;;;;;;;;;5090641;28;20051;-72
2022/07/22 01:05:24;;;;;;;12.80;6.65;;;;;;;;;;5091559;28;20055;-72
2022/07/22 01:08:29;;;;;;;10.82;7.10;;;;;;;;;;5094390;28;20106;-72
2022/07/22 01:11:33;;;;;;;16.67;7.60;;;;;;;;;;5093621;28;20039;-72
2022/07/22 01:14:38;;;;;;;15.40;7.40;;;;;;;;;;5092252;28;20055;-72
2022/07/22 01:17:42;;;;;;;14.93;7.20;;;;;;;;;;5094070;28;20043;-72
2022/07/22 01:20:46;;;;;;;17.13;8.60;;;;;;;;;;5093016;28;20530;-72
2022/07/22 01:23:51;;;;;;;23.25;8.40;;;;;;;;;;5081385;28;20039;-72
2022/07/22 01:26:56;;;;;;;14.02;8.45;;;;;;;;;;5093997;28;20054;-72
2022/07/22 01:30:00;;;;;;;13.18;8.23;;;;;;;;;;5081270;28;20070;-72
2022/07/22 01:33:04;;;;;;;17.25;8.45;;;;;;;;;;5093672;28;20051;-72
2022/07/22 01:36:09;;;;;;;15.88;8.80;;;;;;;;;;5081548;28;20404;-72
2022/07/22 01:39:13;;;;;;;18.65;8.98;;;;;;;;;;5081083;28;20043;-72
2022/07/22 01:42:18;;;;;;;21.05;9.25;;;;;;;;;;5092719;28;20047;-72
2022/07/22 01:45:22;;;;;;;19.52;9.13;;;;;;;;;;5092812;28;20051;-72
2022/07/22 01:48:27;;;;;;;13.00;8.75;;;;;;;;;;5093660;28;20050;-72
2022/07/22 01:51:31;;;;;;;15.38;9.55;;;;;;;;;;5092316;28;20043;-72
2022/07/22 01:54:36;;;;;;;19.13;9.15;;;;;;;;;;5092386;28;20055;-72
2022/07/22 01:57:40;;;;;;;24.38;8.93;;;;;;;;;;5080810;28;20043;-72
2022/07/22 02:00:54;;;;;;;13.18;8.43;;;;;;;;;;5092203;28;20047;-72
2022/07/22 02:03:58;;;;;;;15.35;7.70;;;;;;;;;;5080728;28;20047;-72
2022/07/22 02:07:03;;;;;;;19.40;7.43;;;;;;;;;;5092404;28;20047;-72
2022/07/22 02:10:10;;;;;;;13.45;7.97;;;;;;;;;;5092054;28;20236;-72
2022/07/22 02:13:14;;;;;;;14.05;8.15;;;;;;;;;;5091802;28;20047;-72
2022/07/22 02:16:19;;;;;;;23.00;8.70;;;;;;;;;;5092494;28;20522;-72
2022/07/22 02:19:24;;;;;;;17.95;8.20;;;;;;;;;;5092097;28;20478;-72
2022/07/22 02:22:29;;;;;;;13.23;8.43;;;;;;;;;;5091932;28;20043;-72
2022/07/22 02:25:34;;;;;;;15.60;8.00;;;;;;;;;;5091965;28;20308;-72
2022/07/22 02:28:37;;;;;;;16.92;8.40;;;;;;;;;;5092877;28;20039;-72
2022/07/22 02:31:45;;;;;;;14.63;7.95;;;;;;;;;;5091538;28;20047;-72
2022/07/22 02:34:49;;;;;;;15.68;8.35;;;;;;;;;;5091596;28;20059;-72
2022/07/22 02:37:53;;;;;;;20.92;7.82;;;;;;;;;;5092527;28;20043;-72
2022/07/22 02:40:58;;;;;;;17.05;7.55;;;;;;;;;;5091651;28;20072;-72
2022/07/22 02:44:02;;;;;;;11.52;7.03;;;;;;;;;;5091417;28;20035;-72
2022/07/22 02:47:07;;;;;;;13.85;7.35;;;;;;;;;;5079592;28;20047;-72
2022/07/22 02:50:12;;;;;;;11.55;7.75;;;;;;;;;;5091975;28;20051;-72
2022/07/22 02:53:16;;;;;;;13.07;7.25;;;;;;;;;;5091325;28;20051;-72
2022/07/22 02:56:20;;;;;;;13.10;7.63;;;;;;;;;;5091300;28;20118;-72
2022/07/22 02:59:24;;;;;;;13.65;7.22;;;;;;;;;;5091806;28;20043;-72
2022/07/22 03:02:29;;;;;;;24.52;8.40;;;;;;;;;;5091102;28;20046;-72
2022/07/22 03:05:33;;;;;;;14.27;7.03;;;;;;;;;;5091225;28;20043;-72
2022/07/22 03:08:55;;;;;;;12.13;7.38;;;;;;;;;;5079497;28;20050;-72
2022/07/22 03:12:00;;;;;;;12.95;6.90;;;;;;;;;;5091149;28;20239;-72
2022/07/22 03:15:04;;;;;;;16.45;7.47;;;;;;;;;;5090754;28;20047;-72
2022/07/22 03:18:11;;;;;;;15.35;7.35;;;;;;;;;;5079360;28;20047;-72
2022/07/22 03:21:15;;;;;;;12.63;7.35;;;;;;;;;;5090628;28;20051;-72
2022/07/22 03:24:19;;;;;;;14.45;7.30;;;;;;;;;;5090759;28;20035;-72
2022/07/22 03:27:24;;;;;;;13.85;7.63;;;;;;;;;;5090378;28;20059;-72
2022/07/22 03:30:28;;;;;;;21.58;8.48;;;;;;;;;;5090876;28;20039;-72
2022/07/22 03:33:35;;;;;;;14.45;8.30;;;;;;;;;;5090795;28;20046;-72
2022/07/22 03:36:40;;;;;;;18.48;8.20;;;;;;;;;;5090477;28;20054;-72
2022/07/22 03:39:45;;;;;;;16.90;8.45;;;;;;;;;;5090649;28;20039;-72
2022/07/22 03:42:50;;;;;;;17.40;9.10;;;;;;;;;;5090299;28;20043;-72
2022/07/22 03:45:54;;;;;;;21.90;8.60;;;;;;;;;;5090397;28;20047;-72
2022/07/22 03:48:59;;;;;;;15.82;8.23;;;;;;;;;;5091191;28;20404;-71
2022/07/22 03:52:03;;;;;;;15.68;7.93;;;;;;;;;;5090388;28;20415;-72
2022/07/22 03:55:08;;;;;;;15.00;9.30;;;;;;;;;;5090176;28;20059;-72
2022/07/22 03:58:13;;;;;;;14.60;8.38;;;;;;;;;;5090388;28;20045;-72
2022/07/22 04:01:17;;;;;;;22.23;9.15;;;;;;;;;;5091160;28;20051;-72
2022/07/22 04:04:21;;;;;;;15.93;9.07;;;;;;;;;;5090717;28;20039;-71
2022/07/22 04:07:28;;;;;;;18.33;9.60;;;;;;;;;;5090317;28;20058;-72
2022/07/22 04:10:32;;;;;;;15.35;10.07;;;;;;;;;;5090454;28;20043;-72
2022/07/22 04:13:36;;;;;;;18.73;9.77;;;;;;;;;;5090215;28;20499;-72
2022/07/22 04:16:41;;;;;;;17.92;9.38;;;;;;;;;;5078429;28;20055;-72
2022/07/22 04:19:47;;;;;;;21.95;9.93;;;;;;;;;;5090047;28;20043;-72
2022/07/22 04:22:59;;;;;;;12.43;9.23;;;;;;;;;;5089824;28;20043;-71
2022/07/22 04:26:03;;;;;;;16.80;10.10;;;;;;;;;;5089749;28;20059;-72
2022/07/22 04:29:09;;;;;;;17.75;9.60;;;;;;;;;;5090135;28;20039;-71
2022/07/22 04:32:13;;;;;;;21.83;10.30;;;;;;;;;;5090753;28;20043;-71
2022/07/22 04:35:19;;;;;;;22.65;9.60;;;;;;;;;;5089719;28;20047;-71
2022/07/22 04:38:36;;;;;;;23.13;9.32;;;;;;;;;;5090210;28;20055;-71
2022/07/22 04:41:42;;;;;;;20.08;9.63;;;;;;;;;;5082238;28;20046;-71
2022/07/22 04:44:51;;;;;;;20.00;9.32;;;;;;;;;;5093357;28;20043;-71
2022/07/22 04:47:55;;;;;;;19.17;9.77;;;;;;;;;;5093488;28;20416;-71
2022/07/22 04:51:00;;;;;;;24.70;9.98;;;;;;;;;;5093245;28;20071;-71
2022/07/22 04:54:05;;;;;;;28.20;10.07;;;;;;;;;;5093127;28;20047;-71
2022/07/22 04:57:13;;;;;;;21.48;10.27;;;;;;;;;;5093623;28;20522;-71
2022/07/22 05:00:18;;;;;;;23.08;10.60;;;;;;;;;;5093038;28;20039;-71
2022/07/22 05:03:41;;;;;;;22.80;11.32;;;;;;;;;;5093491;28;20043;-71
2022/07/22 05:06:46;;;;;;;33.53;10.77;;;;;;;;;;5093011;28;20035;-71
2022/07/22 05:09:50;;;;;;;26.58;10.27;;;;;;;;;;5093937;28;20083;-71
2022/07/22 05:12:55;;;;;;;30.95;9.60;;;;;;;;;;5093182;28;20106;-71
2022/07/22 05:16:03;;;;;;;21.13;10.40;;;;;;;;;;5092745;28;20062;-71
2022/07/22 05:19:10;;;;;;;33.53;13.40;;;;;;;;;;5093121;28;20062;-70
2022/07/22 05:22:16;;;;;;;29.63;12.13;;;;;;;;;;5092875;28;20047;-71
2022/07/22 05:25:21;;;;;;;25.65;11.02;;;;;;;;;;5093004;28;20400;-71
2022/07/22 05:28:26;;;;;;;24.77;11.20;;;;;;;;;;5093016;28;20392;-71
2022/07/22 05:31:30;;;;;;;21.85;10.38;;;;;;;;;;5080931;28;20043;-71
2022/07/22 05:34:34;;;;;;;19.35;10.30;;;;;;;;;;5093044;28;20059;-71
2022/07/22 05:37:38;;;;;;;31.13;11.38;;;;;;;;;;5092591;28;20490;-71
2022/07/22 05:40:43;;;;;;;22.70;10.82;;;;;;;;;;5092524;28;20055;-71
2022/07/22 05:43:48;;;;;;;26.58;11.30;;;;;;;;;;5092865;28;20043;-74
2022/07/22 05:46:53;;;;;;;25.48;11.32;;;;;;;;;;5093550;28;20047;-74
2022/07/22 05:49:57;;;;;;;22.67;11.07;;;;;;;;;;5092612;28;20059;-73
2022/07/22 05:53:01;;;;;;;19.02;10.65;;;;;;;;;;5092630;28;20055;-74
2022/07/22 05:56:06;;;;;;;22.58;10.57;;;;;;;;;;5092704;28;20054;-73
2022/07/22 05:59:10;;;;;;;21.77;8.43;;;;;;;;;;5092573;28;20051;-74
2022/07/22 06:02:15;;;;;;;29.30;9.50;;;;;;;;;;5092201;28;20047;-73
2022/07/22 06:05:24;;;;;;;18.63;9.52;;;;;;;;;;5092624;28;20043;-73
2022/07/22 06:08:28;;;;;;;19.70;10.07;;;;;;;;;;5092219;28;20047;-73
2022/07/22 06:11:33;;;;;;;160.32;20.63;;;;;;;;;;5091741;28;20483;-71
2022/07/22 06:14:37;;;;;;;29.08;10.88;;;;;;;;;;5091522;28;20047;-70
2022/07/22 06:17:42;;;;;;;31.08;10.63;;;;;;;;;;5091180;28;20043;-71
2022/07/22 06:20:47;;;;;;;32.60;10.80;;;;;;;;;;5091458;28;20039;-71
2022/07/22 06:23:52;;;;;;;26.80;10.27;;;;;;;;;;5091708;28;20039;-71
2022/07/22 06:26:56;;;;;;;23.23;10.32;;;;;;;;;;5091644;28;20043;-69
2022/07/22 06:30:01;;;;;;;22.20;9.80;;;;;;;;;;5091741;28;20039;-71
2022/07/22 06:33:06;;;;;;;20.50;9.93;;;;;;;;;;5091881;28;20059;-70
2022/07/22 06:36:11;;;;;;;17.65;9.32;;;;;;;;;;5092281;28;20147;-69
2022/07/22 06:39:16;;;;;;;14.82;8.80;;;;;;;;;;5091264;28;20035;-70
2022/07/22 06:42:26;;;;;;;19.02;9.02;;;;;;;;;;5092218;28;20047;-67
2022/07/22 06:45:53;;;;;;;21.38;9.88;;;;;;;;;;5092344;28;20400;-70
2022/07/22 06:49:03;;;;;;;20.08;7.93;;;;;;;;;;5091235;28;20043;-69
2022/07/22 06:52:11;;;;;;;39.10;9.68;;;;;;;;;;5091489;28;20264;-69
2022/07/22 06:55:15;;;;;;;23.05;10.10;;;;;;;;;;5091016;28;20055;-70
2022/07/22 06:58:27;;;;;;;19.55;10.68;;;;;;;;;;5091229;28;20031;-69
2022/07/22 07:01:31;;;;;;;18.88;9.80;;;;;;;;;;5090739;28;20517;-71
2022/07/22 07:04:38;;;;;;;18.25;8.65;;;;;;;;;;5090388;28;20039;-70
2022/07/22 07:07:42;;;;;;;23.38;10.75;;;;;;;;;;5091641;28;20051;-71
2022/07/22 07:10:47;;;;;;;18.92;10.55;;;;;;;;;;5090219;28;20043;-73
2022/07/22 07:13:52;;;;;;;19.45;13.30;;;;;;;;;;5090233;28;20051;-71
2022/07/22 07:16:56;;;;;;;28.73;13.10;;;;;;;;;;5090672;28;20051;-68
2022/07/22 07:20:01;;;;;;;28.77;13.10;;;;;;;;;;5091914;28;20154;-68
2022/07/22 07:23:06;;;;;;;23.27;13.93;;;;;;;;;;5091518;28;20062;-68
2022/07/22 07:26:18;;;;;;;23.88;12.15;;;;;;;;;;5090387;28;20047;-71
2022/07/22 07:29:22;;;;;;;26.65;12.55;;;;;;;;;;5090369;28;20400;-69
2022/07/22 07:32:27;;;;;;;27.00;12.32;;;;;;;;;;5090250;28;20396;-67
2022/07/22 07:35:32;;;;;;;17.95;9.40;;;;;;;;;;5090217;28;20070;-68
2022/07/22 07:38:37;;;;;;;17.17;10.02;;;;;;;;;;5090155;28;20035;-68
2022/07/22 07:41:46;;;;;;;21.42;9.02;;;;;;;;;;5090061;28;20043;-67
2022/07/22 07:44:53;;;;;;;17.30;9.45;;;;;;;;;;5090488;28;20039;-68
2022/07/22 07:47:57;;;;;;;17.10;10.48;;;;;;;;;;5090072;28;20047;-73
2022/07/22 07:51:01;;;;;;;16.70;9.48;;;;;;;;;;5090950;28;20054;-69
2022/07/22 07:54:05;;;;;;;15.40;9.20;;;;;;;;;;5090904;28;20043;-70
2022/07/22 07:57:11;;;;;;;16.88;9.60;;;;;;;;;;5089456;28;20039;-68
2022/07/22 08:00:17;;;;;;;16.50;9.35;;;;;;;;;;5089720;28;20051;-68
2022/07/22 08:03:25;;;;;;;19.77;8.80;;;;;;;;;;5079234;28;20035;-67
2022/07/22 08:06:29;;;;;;;20.45;9.13;;;;;;;;;;5089828;28;20035;-67
2022/07/22 08:09:37;;;;;;;14.73;8.80;;;;;;;;;;5090314;28;20043;-67
2022/07/22 08:12:49;;;;;;;15.25;9.00;;;;;;;;;;5090508;28;20039;-67
2022/07/22 08:16:04;;;;;;;14.27;8.80;;;;;;;;;;5093993;28;20055;-67
2022/07/22 08:19:10;;;;;;;14.15;8.77;;;;;;;;;;5094032;28;20043;-66
2022/07/22 08:22:15;;;;;;;14.55;7.75;;;;;;;;;;5082224;28;20054;-65
2022/07/22 08:25:21;;;;;;;16.20;8.45;;;;;;;;;;5094157;28;20043;-66
2022/07/22 08:28:25;;;;;;;16.83;8.10;;;;;;;;;;5094798;28;20051;-66
2022/07/22 08:31:31;;;;;;;13.00;7.57;;;;;;;;;;5093857;28;20394;-67
2022/07/22 08:34:37;;;;;;;14.90;8.10;;;;;;;;;;5093514;28;20043;-66
2022/07/22 08:37:42;;;;;;;16.60;8.13;;;;;;;;;;5093711;28;20043;-67
2022/07/22 08:40:47;;;;;;;15.73;8.80;;;;;;;;;;5094437;28;20055;-67
2022/07/22 08:43:52;;;;;;;13.40;8.73;;;;;;;;;;5094270;28;20047;-67
2022/07/22 08:46:57;;;;;;;13.68;8.73;;;;;;;;;;5093593;28;20043;-67
2022/07/22 08:50:22;;;;;;;20.63;8.63;;;;;;;;;;5088452;28;20471;-67
2022/07/22 08:53:44;;;;;;;12.27;7.93;;;;;;;;;;5094130;28;20051;-69
2022/07/22 08:56:52;;;;;;;19.42;8.82;;;;;;;;;;5093194;28;20051;-68
2022/07/22 08:59:58;;;;;;;14.57;8.10;;;;;;;;;;5081648;28;20507;-69
2022/07/22 09:03:25;;;;;;;11.93;8.48;;;;;;;;;;5093069;28;20043;-68
2022/07/22 09:06:34;;;;;;;22.98;8.75;;;;;;;;;;5093377;28;20064;-70
2022/07/22 09:09:41;;;;;;;17.48;8.82;;;;;;;;;;5093091;28;20522;-68
2022/07/22 09:13:06;;;;;;;24.35;8.25;;;;;;;;;;5094043;28;20043;-70
2022/07/22 09:16:41;;;;;;;13.23;7.15;;;;;;;;;;5093730;28;20581;-67
2022/07/22 09:20:16;;;;;;;15.18;7.35;;;;;;;;;;5093678;28;20046;-67
2022/07/22 09:23:41;;;;;;;11.75;7.40;;;;;;;;;;5093690;28;20047;-66
2022/07/22 09:26:46;;;;;;;10.88;7.15;;;;;;;;;;5091023;28;20198;-66
2022/07/22 09:30:06;;;;;;;;;;;;;;;;;;5092874;28;20039;-67
2022/07/22 09:33:18;;;;;;;13.77;7.60;;;;;;;;;;5093618;28;19915;-67
2022/07/22 09:36:29;;;;;;;14.65;8.27;;;;;;;;;;5092347;28;20059;-68
2022/07/22 09:39:35;;;;;;;17.08;8.15;;;;;;;;;;5092521;28;20047;-68
2022/07/22 09:43:00;;;;;;;14.85;8.07;;;;;;;;;;5091831;28;20043;-66
2022/07/22 09:46:05;;;;;;;12.93;8.60;;;;;;;;;;5093112;28;20039;-65
2022/07/22 09:49:36;;;;;;;15.38;7.90;;;;;;;;;;5093052;28;20114;-69
2022/07/22 09:53:03;;;;;;;12.70;7.82;;;;;;;;;;5092761;28;20067;-65
2022/07/22 09:56:08;;;;;;;22.50;9.32;;;;;;;;;;5091878;28;20059;-66
2022/07/22 09:59:13;;;;;;;16.00;8.48;;;;;;;;;;5092938;28;20483;-65
2022/07/22 10:02:21;;;;;;;20.42;8.75;;;;;;;;;;5092015;28;20043;-66
2022/07/22 10:05:27;;;;;;;11.07;8.13;;;;;;;;;;5093051;28;20043;-66
2022/07/22 10:08:33;;;;;;;16.55;8.70;;;;;;;;;;5091910;28;20042;-67
2022/07/22 10:11:38;;;;;;;16.10;7.15;;;;;;;;;;5091607;28;20043;-67
2022/07/22 10:14:45;;;;;;;14.50;7.20;;;;;;;;;;5091799;28;20392;-67
2022/07/22 10:17:51;;;;;;;16.70;7.72;;;;;;;;;;5091512;28;20051;-67
2022/07/22 10:21:06;;;;;;;11.10;7.07;;;;;;;;;;5092612;28;20047;-66
2022/07/22 10:24:11;;;;;;;11.52;7.00;;;;;;;;;;5091732;28;20414;-66
2022/07/22 10:27:53;;;;;;;10.57;7.22;;;;;;;;;;5091259;28;20051;-66
2022/07/22 10:31:16;;;;;;;13.32;7.32;;;;;;;;;;5096495;28;20047;-67
2022/07/22 10:34:21;;;;;;;12.02;8.45;;;;;;;;;;5092133;28;20046;-66
2022/07/22 10:37:35;;;;;;;11.48;7.80;;;;;;;;;;5091921;28;20044;-67
2022/07/22 10:40:50;;;;;;;11.35;7.22;;;;;;;;;;5091688;28;20499;-68
2022/07/22 10:43:54;;;;;;;8.82;7.10;;;;;;;;;;5091194;28;20043;-67
2022/07/22 10:47:02;;;;;;;8.50;6.78;;;;;;;;;;5092199;28;20032;-67
2022/07/22 10:50:27;;;;;;;12.35;7.28;;;;;;;;;;5091646;28;20052;-68
2022/07/22 10:53:45;;;;;;;11.35;7.00;;;;;;;;;;5091782;28;20047;-67
2022/07/22 10:56:49;;;;;;;11.45;6.97;;;;;;;;;;5091978;28;20062;-67
2022/07/22 10:59:54;;;;;;;12.15;6.40;;;;;;;;;;5091043;28;20039;-67
2022/07/22 11:02:59;;;;;;;11.65;6.60;;;;;;;;;;5091216;28;20051;-67
2022/07/22 11:06:23;;;;;;;11.40;6.82;;;;;;;;;;5090282;28;20039;-67
2022/07/22 11:09:32;;;;;;;11.40;7.18;;;;;;;;;;5093802;28;20396;-68
2022/07/22 11:12:36;;;;;;;8.13;6.20;;;;;;;;;;5091409;28;20040;-67
2022/07/22 11:15:41;;;;;;;8.10;5.45;;;;;;;;;;5091143;28;20492;-67
2022/07/22 11:18:46;;;;;;;13.32;6.65;;;;;;;;;;5090899;28;20381;-66
2022/07/22 11:21:52;;;;;;;9.60;6.85;;;;;;;;;;5091294;28;20426;-67
2022/07/22 11:24:57;;;;;;;13.38;6.40;;;;;;;;;;5091268;28;20171;-68
2022/07/22 11:28:01;;;;;;;7.00;6.00;;;;;;;;;;5091848;28;20051;-67
2022/07/22 11:31:09;;;;;;;8.63;5.78;;;;;;;;;;5091091;28;20377;-67
2022/07/22 11:34:15;;;;;;;9.10;5.78;;;;;;;;;;5091510;28;20361;-67
2022/07/22 11:37:22;;;;;;;10.55;6.35;;;;;;;;;;5091185;28;20052;-67
2022/07/22 11:40:32;;;;;;;12.05;5.88;;;;;;;;;;5090877;28;20047;-67
2022/07/22 11:43:40;;;;;;;6.82;5.72;;;;;;;;;;5091590;28;20055;-67
2022/07/22 11:46:44;;;;;;;7.85;5.25;;;;;;;;;;5091022;28;20040;-67
2022/07/22 11:49:49;;;;;;;9.95;5.57;;;;;;;;;;5090403;28;20044;-67
2022/07/22 11:52:53;;;;;;;8.40;6.57;;;;;;;;;;5090884;28;20040;-67
2022/07/22 11:55:58;;;;;;;7.43;5.60;;;;;;;;;;5090732;28;20047;-67
2022/07/22 11:59:06;;;;;;;8.10;5.43;;;;;;;;;;5091192;28;20468;-67
2022/07/22 12:02:13;;;;;;;11.75;6.57;;;;;;;;;;5091048;28;20369;-67
2022/07/22 12:05:18;;;;;;;12.88;7.00;;;;;;;;;;5090834;28;20466;-67
2022/07/22 12:08:22;;;;;;;14.43;6.40;;;;;;;;;;5090374;28;20063;-67
2022/07/22 12:11:26;;;;;;;12.15;6.20;;;;;;;;;;5090613;28;20051;-66
2022/07/22 12:14:32;;;;;;;11.20;5.65;;;;;;;;;;5090819;28;20055;-69
2022/07/22 12:17:36;;;;;;;8.57;5.50;;;;;;;;;;5090692;28;20051;-69
2022/07/22 12:20:47;;;;;;;9.02;5.53;;;;;;;;;;5090856;28;20040;-70
2022/07/22 12:24:10;;;;;;;12.20;5.55;;;;;;;;;;5090761;28;20040;-69
2022/07/22 12:27:15;;;;;;;7.63;5.57;;;;;;;;;;5090760;28;20055;-69
2022/07/22 12:30:19;;;;;;;13.98;6.82;;;;;;;;;;5090900;28;20040;-69
2022/07/22 12:33:24;;;;;;;13.07;5.63;;;;;;;;;;5090961;28;20047;-69
2022/07/22 12:36:33;;;;;;;21.25;6.43;;;;;;;;;;5090605;28;20503;-69
2022/07/22 12:39:38;;;;;;;6.60;5.50;;;;;;;;;;5089936;28;20503;-68
2022/07/22 12:42:45;;;;;;;8.95;5.28;;;;;;;;;;5089979;28;20047;-69
2022/07/22 12:45:50;;;;;;;10.68;5.78;;;;;;;;;;5090887;28;20036;-69
2022/07/22 12:48:59;;;;;;;8.75;4.70;;;;;;;;;;5090591;28;20055;-69
2022/07/22 12:52:12;;;;;;;10.80;5.80;;;;;;;;;;5090204;28;20381;-69
2022/07/22 12:55:16;;;;;;;9.32;5.00;;;;;;;;;;5090511;28;20281;-68
2022/07/22 12:58:20;;;;;;;15.23;5.75;;;;;;;;;;5090220;28;20393;-67
2022/07/22 13:01:24;;;;;;;11.43;5.88;;;;;;;;;;5092694;28;20047;-68
2022/07/22 13:04:29;;;;;;;13.35;5.57;;;;;;;;;;5094170;28;20047;-68
2022/07/22 13:07:34;;;;;;;13.30;5.43;;;;;;;;;;5094163;28;20047;-68
2022/07/22 13:10:38;;;;;;;11.68;4.93;;;;;;;;;;5093997;28;20039;-67
2022/07/22 13:13:44;;;;;;;10.73;5.28;;;;;;;;;;5094096;28;20051;-67
2022/07/22 13:16:49;;;;;;;6.68;4.40;;;;;;;;;;5094431;28;20559;-68
2022/07/22 13:19:53;;;;;;;11.75;5.28;;;;;;;;;;5092733;28;20036;-67
2022/07/22 13:22:57;;;;;;;10.68;4.47;;;;;;;;;;5090623;28;20404;-68
2022/07/22 13:26:01;;;;;;;19.63;5.50;;;;;;;;;;5091712;28;20047;-68
2022/07/22 13:29:06;;;;;;;11.65;4.78;;;;;;;;;;5092442;28;20507;-67
2022/07/22 13:32:10;;;;;;;9.70;4.50;;;;;;;;;;5092624;28;20051;-67
2022/07/22 13:35:15;;;;;;;7.38;4.55;;;;;;;;;;5093695;28;20039;-68
2022/07/22 13:38:19;;;;;;;12.70;4.97;;;;;;;;;;5093423;28;20040;-68
2022/07/22 13:41:24;;;;;;;10.90;5.20;;;;;;;;;;5093770;28;20047;-68
2022/07/22 13:44:28;;;;;;;5.97;4.50;;;;;;;;;;5093422;28;20047;-68
2022/07/22 13:47:32;;;;;;;7.45;4.30;;;;;;;;;;5093402;28;20044;-68
2022/07/22 13:50:36;;;;;;;10.27;4.85;;;;;;;;;;5093029;28;20048;-68
2022/07/22 13:53:41;;;;;;;12.35;5.90;;;;;;;;;;5093194;28;20395;-70
2022/07/22 13:56:49;;;;;;;14.00;4.78;;;;;;;;;;5093063;28;20055;-69
2022/07/22 13:59:53;;;;;;;7.22;4.30;;;;;;;;;;5093011;28;20035;-70
2022/07/22 14:02:57;;;;;;;22.02;4.90;;;;;;;;;;5093187;28;20480;-71
2022/07/22 14:06:02;;;;;;;10.55;4.47;;;;;;;;;;5093148;28;20399;-71
2022/07/22 14:09:06;;;;;;;17.52;4.38;;;;;;;;;;5092842;28;20262;-71
2022/07/22 14:12:11;;;;;;;16.45;4.43;;;;;;;;;;5092314;28;20050;-71
2022/07/22 14:15:15;;;;;;;19.27;5.10;;;;;;;;;;5093066;28;20047;-71
2022/07/22 14:18:19;;;;;;;8.45;4.40;;;;;;;;;;5092853;28;20051;-70
2022/07/22 14:21:23;;;;;;;14.70;4.53;;;;;;;;;;5092572;28;20040;-71
2022/07/22 14:24:28;;;;;;;13.10;4.90;;;;;;;;;;5092476;28;20043;-71
2022/07/22 14:27:32;;;;;;;14.25;4.97;;;;;;;;;;5092581;28;20047;-70
2022/07/22 14:30:37;;;;;;;15.10;4.47;;;;;;;;;;5092429;28;20047;-70
2022/07/22 14:33:41;;;;;;;17.42;4.97;;;;;;;;;;5092454;28;20039;-70
2022/07/22 14:36:45;;;;;;;21.23;5.53;;;;;;;;;;5092002;28;20083;-70
2022/07/22 14:39:50;;;;;;;7.47;4.68;;;;;;;;;;5091676;28;20047;-70
2022/07/22 14:42:54;;;;;;;15.25;5.13;;;;;;;;;;5092052;28;20063;-70
2022/07/22 14:45:58;;;;;;;13.45;5.53;;;;;;;;;;5092417;28;20043;-70
2022/07/22 14:49:03;;;;;;;10.90;5.05;;;;;;;;;;5092138;28;20058;-70
2022/07/22 14:52:07;;;;;;;7.90;4.72;;;;;;;;;;5092248;28;20051;-75
2022/07/22 14:55:11;;;;;;;10.15;4.90;;;;;;;;;;5090852;28;20040;-68
2022/07/22 14:58:15;;;;;;;8.20;4.63;;;;;;;;;;5092064;28;20039;-69
2022/07/22 15:01:20;;;;;;;7.57;4.65;;;;;;;;;;5091444;28;20601;-70
2022/07/22 15:04:24;;;;;;;14.75;5.55;;;;;;;;;;5088883;28;20043;-70
2022/07/22 15:07:28;;;;;;;10.38;5.95;;;;;;;;;;5091680;28;20039;-70
2022/07/22 15:10:33;;;;;;;17.50;5.53;;;;;;;;;;5091133;28;20043;-70
2022/07/22 15:13:37;;;;;;;9.02;4.60;;;;;;;;;;5091818;28;20070;-70
2022/07/22 15:16:42;;;;;;;6.82;4.45;;;;;;;;;;5091451;28;20048;-70
2022/07/22 15:19:46;;;;;;;11.15;5.22;;;;;;;;;;5091605;28;20389;-70
2022/07/22 15:22:51;;;;;;;8.68;4.93;;;;;;;;;;5091565;28;20507;-70
2022/07/22 15:25:56;;;;;;;8.57;5.70;;;;;;;;;;5090178;28;20032;-70
2022/07/22 15:29:00;;;;;;;11.10;5.50;;;;;;;;;;5091023;28;20040;-70
2022/07/22 15:32:04;;;;;;;9.30;5.20;;;;;;;;;;5091431;28;20507;-70
2022/07/22 15:35:09;;;;;;;9.18;4.85;;;;;;;;;;5091278;28;20036;-70
2022/07/22 15:38:13;;;;;;;7.43;4.80;;;;;;;;;;5091396;28;20503;-70
2022/07/22 15:41:19;;;;;;;15.18;5.60;;;;;;;;;;5091234;28;20040;-70
2022/07/22 15:44:24;;;;;;;9.82;4.90;;;;;;;;;;5091085;28;20050;-70
2022/07/22 15:47:28;;;;;;;10.95;5.05;;;;;;;;;;5091280;28;20377;-70
2022/07/22 15:50:32;;;;;;;8.70;6.03;;;;;;;;;;5090793;28;20075;-70
2022/07/22 15:53:37;;;;;;;14.15;6.35;;;;;;;;;;5089273;28;20385;-70
2022/07/22 15:56:41;;;;;;;12.48;5.57;;;;;;;;;;5090325;28;20055;-68
2022/07/22 15:59:48;;;;;;;9.43;5.10;;;;;;;;;;5090757;28;20491;-68
2022/07/22 16:02:52;;;;;;;9.32;4.60;;;;;;;;;;5089496;28;20420;-69
2022/07/22 16:05:56;;;;;;;18.30;5.55;;;;;;;;;;5091029;28;20031;-72
2022/07/22 16:09:01;;;;;;;10.10;4.32;;;;;;;;;;5089965;28;20051;-69
2022/07/22 16:12:06;;;;;;;13.43;5.65;;;;;;;;;;5090789;28;20506;-70
2022/07/22 16:15:10;;;;;;;13.30;6.80;;;;;;;;;;5090685;28;20047;-73
2022/07/22 16:18:14;;;;;;;9.45;4.80;;;;;;;;;;5090676;28;20483;-73
2022/07/22 16:21:19;;;;;;;10.85;4.45;;;;;;;;;;5090419;28;20028;-73
2022/07/22 16:24:23;;;;;;;14.52;4.65;;;;;;;;;;5090488;28;20391;-71
2022/07/22 16:27:28;;;;;;;16.52;4.40;;;;;;;;;;5090896;28;20040;-68
2022/07/22 16:30:32;;;;;;;7.90;4.40;;;;;;;;;;5090261;28;20114;-67
2022/07/22 16:33:36;;;;;;;10.10;4.28;;;;;;;;;;5089749;28;20032;-68
2022/07/22 16:36:40;;;;;;;10.40;4.80;;;;;;;;;;5093753;28;20051;-68
2022/07/22 16:39:45;;;;;;;15.35;3.80;;;;;;;;;;5094183;28;20396;-71
2022/07/22 16:42:49;;;;;;;9.95;4.10;;;;;;;;;;5092640;28;20051;-71
2022/07/22 16:45:54;;;;;;;14.00;6.00;;;;;;;;;;5094299;28;20036;-70
2022/07/22 16:48:58;;;;;;;8.68;4.00;;;;;;;;;;5093477;28;20102;-69
2022/07/22 16:52:02;;;;;;;8.38;4.20;;;;;;;;;;5094229;28;20453;-70
2022/07/22 16:55:07;;;;;;;6.60;3.85;;;;;;;;;;5094121;28;20029;-70
2022/07/22 16:58:12;;;;;;;12.95;3.67;;;;;;;;;;5094113;28;20048;-70
2022/07/22 17:01:16;;;;;;;8.98;4.20;;;;;;;;;;5093207;28;20039;-69
2022/07/22 17:04:20;;;;;;;10.38;4.63;;;;;;;;;;5094233;28;20143;-69
2022/07/22 17:07:25;;;;;;;9.98;4.25;;;;;;;;;;5093787;28;20035;-69
2022/07/22 17:10:29;;;;;;;12.68;4.63;;;;;;;;;;5093821;28;20036;-70
2022/07/22 17:13:35;;;;;;;16.90;5.28;;;;;;;;;;5093012;28;20047;-70
2022/07/22 17:16:40;;;;;;;5.35;3.78;;;;;;;;;;5093784;28;20058;-70
2022/07/22 17:19:44;;;;;;;8.45;5.13;;;;;;;;;;5093821;28;20399;-70
2022/07/22 17:22:50;;;;;;;12.85;4.75;;;;;;;;;;5093564;28;20036;-70
2022/07/22 17:25:55;;;;;;;12.05;5.07;;;;;;;;;;5093615;28;20080;-70
2022/07/22 17:29:00;;;;;;;11.57;4.40;;;;;;;;;;5093213;28;20055;-70
2022/07/22 17:32:05;;;;;;;9.45;4.78;;;;;;;;;;5093538;28;20047;-70
2022/07/22 17:35:10;;;;;;;12.13;4.93;;;;;;;;;;5093564;28;20484;-70
2022/07/22 17:38:14;;;;;;;14.65;7.20;;;;;;;;;;5092951;28;20047;-70
2022/07/22 17:41:18;;;;;;;19.52;5.88;;;;;;;;;;5092141;28;20047;-70
2022/07/22 17:44:22;;;;;;;6.82;4.72;;;;;;;;;;5093424;28;20043;-70
2022/07/22 17:47:27;;;;;;;23.38;6.25;;;;;;;;;;5092308;28;20044;-70
2022/07/22 17:50:38;;;;;;;16.80;5.32;;;;;;;;;;5092877;28;20050;-70
2022/07/22 17:53:42;;;;;;;;;;;;;;;;;;5093588;28;20051;-70
2022/07/22 17:56:46;;;;;;;16.75;6.20;;;;;;;;;;5092472;28;19923;-73
2022/07/22 17:59:52;;;;;;;15.10;6.38;;;;;;;;;;5091640;28;20610;-72
2022/07/22 18:02:57;;;;;;;9.75;5.35;;;;;;;;;;5093029;28;20047;-73
2022/07/22 18:06:01;;;;;;;8.95;5.53;;;;;;;;;;5092642;28;20032;-74
2022/07/22 18:09:09;;;;;;;9.70;5.03;;;;;;;;;;5092820;28;20036;-73
2022/07/22 18:12:13;;;;;;;10.07;5.20;;;;;;;;;;5093227;28;20032;-73
2022/07/22 18:15:18;;;;;;;8.88;5.55;;;;;;;;;;5091607;28;20035;-73
2022/07/22 18:18:23;;;;;;;9.55;5.35;;;;;;;;;;5091658;28;20051;-73
2022/07/22 18:21:28;;;;;;;11.38;5.60;;;;;;;;;;5092744;28;20032;-73